Time;durP1;ratioP1;P1;durP2;ratioP2;P2;SDS_P1;SDS_P2;PMS_P1;PMS_P2;Temp;Humidity;BMP_temperature;BMP_pressure;BME280_temperature;BME280_humidity;BME280_pressure;Samples;Min_cycle;Max_cycle;Signal;HPM_P1;HPM_P2
2023/09/01 00:00:00;;;;;;;;;2.67;2.67;;;;;;;;4764152;29;45597;-92
2023/09/01 00:02:25;;;;;;;;;3.00;3.00;;;;;;;;4758967;29;45433;-92
2023/09/01 00:04:50;;;;;;;;;3.67;3.67;;;;;;;;4759258;29;45400;-91
2023/09/01 00:07:15;;;;;;;;;3.67;3.67;;;;;;;;4749951;29;45508;-92
2023/09/01 00:09:41;;;;;;;;;4.00;4.00;;;;;;;;4764586;29;45431;-91
2023/09/01 00:12:06;;;;;;;;;4.67;4.67;;;;;;;;4767599;29;45404;-91
2023/09/01 00:14:31;;;;;;;;;4.00;4.00;;;;;;;;4765622;29;45290;-91
2023/09/01 00:17:00;;;;;;;;;5.67;5.67;;;;;;;;4761469;29;45595;-91
2023/09/01 00:19:25;;;;;;;;;5.00;5.00;;;;;;;;4749593;29;47802;-91
2023/09/01 00:21:50;;;;;;;;;6.33;6.33;;;;;;;;4775936;29;45305;-91
2023/09/01 00:24:16;;;;;;;;;6.00;6.00;;;;;;;;4759112;29;45456;-91
2023/09/01 00:26:41;;;;;;;;;4.00;4.00;;;;;;;;4758986;29;45455;-91
2023/09/01 00:29:06;;;;;;;;;6.33;6.33;;;;;;;;4762637;29;45332;-92
2023/09/01 00:31:32;;;;;;;;;5.33;5.33;;;;;;;;4776259;29;45431;-91
2023/09/01 00:33:58;;;;;;;;;5.67;5.67;;;;;;;;4776960;29;45298;-91
2023/09/01 00:36:23;;;;;;;;;6.67;6.67;;;;;;;;4776225;29;45218;-91
2023/09/01 00:38:48;;;;;;;;;5.33;5.33;;;;;;;;4776345;29;45318;-92
2023/09/01 00:41:13;;;;;;;;;7.00;7.00;;;;;;;;4776417;29;45281;-92
2023/09/01 00:43:39;;;;;;;;;5.00;5.00;;;;;;;;4770469;29;45537;-91
2023/09/01 00:46:04;;;;;;;;;5.67;5.67;;;;;;;;4746069;29;45470;-91
2023/09/01 00:48:29;;;;;;;;;5.00;5.00;;;;;;;;4756279;29;47914;-91
2023/09/01 00:50:54;;;;;;;;;7.33;7.33;;;;;;;;4759513;29;45301;-91
2023/09/01 00:53:21;;;;;;;;;6.33;6.33;;;;;;;;4742744;29;45527;-91
2023/09/01 00:55:47;;;;;;;;;5.67;5.67;;;;;;;;4772652;29;45410;-91
2023/09/01 00:58:12;;;;;;;;;10.33;10.33;;;;;;;;4772993;29;46488;-91
2023/09/01 01:00:37;;;;;;;;;10.33;10.33;;;;;;;;4758255;29;45253;-91
2023/09/01 01:03:06;;;;;;;;;9.67;9.67;;;;;;;;4745288;29;45395;-91
2023/09/01 01:05:38;;;;;;;;;7.00;7.00;;;;;;;;4776301;29;45316;-91
2023/09/01 01:08:14;;;;;;;;;8.33;8.33;;;;;;;;4776073;29;45297;-92
2023/09/01 01:10:45;;;;;;;;;7.67;7.67;;;;;;;;4759779;29;45265;-92
2023/09/01 01:13:13;;;;;;;;;11.00;11.00;;;;;;;;4776414;29;45411;-92
2023/09/01 01:15:40;;;;;;;;;8.00;8.00;;;;;;;;4759896;29;45416;-92
2023/09/01 01:18:07;;;;;;;;;9.33;9.33;;;;;;;;4785314;29;45349;-91
2023/09/01 01:20:40;;;;;;;;;8.67;7.67;;;;;;;;4766577;29;45362;-92
2023/09/01 01:23:16;;;;;;;;;8.33;8.33;;;;;;;;4759583;29;45265;-92
2023/09/01 01:25:46;;;;;;;;;7.67;7.67;;;;;;;;4772028;29;45339;-92
2023/09/01 01:28:11;;;;;;;;;8.00;8.00;;;;;;;;4759390;29;46227;-91
2023/09/01 01:30:37;;;;;;;;;7.33;7.33;;;;;;;;4775800;29;45399;-92
2023/09/01 01:33:03;;;;;;;;;6.67;6.67;;;;;;;;4775801;29;45261;-91
2023/09/01 01:35:34;;;;;;;;;8.33;8.33;;;;;;;;4775963;29;45592;-91
2023/09/01 01:38:13;;;;;;;;;7.00;7.00;;;;;;;;4765178;29;45710;-92
2023/09/01 01:40:40;;;;;;;;;8.67;8.67;;;;;;;;4742236;29;45345;-91
2023/09/01 01:43:07;;;;;;;;;7.67;7.67;;;;;;;;4767248;29;45250;-92
2023/09/01 01:45:34;;;;;;;;;6.00;6.00;;;;;;;;4758101;29;45346;-92
2023/09/01 01:48:00;;;;;;;;;7.67;7.67;;;;;;;;4773169;29;45955;-92
2023/09/01 01:50:25;;;;;;;;;9.67;9.67;;;;;;;;4759408;29;45314;-92
2023/09/01 01:52:50;;;;;;;;;7.00;7.00;;;;;;;;4757961;29;45244;-92
2023/09/01 01:55:15;;;;;;;;;5.67;5.67;;;;;;;;4769912;29;45667;-92
2023/09/01 01:57:41;;;;;;;;;7.67;7.67;;;;;;;;4774612;29;45486;-92
2023/09/01 02:00:11;;;;;;;;;6.67;6.67;;;;;;;;4770880;29;45543;-92
2023/09/01 02:02:39;;;;;;;;;6.00;6.00;;;;;;;;4757354;29;45291;-92
2023/09/01 02:05:07;;;;;;;;;5.33;5.33;;;;;;;;4757570;29;45510;-91
2023/09/01 02:07:33;;;;;;;;;6.33;6.33;;;;;;;;4757367;29;46347;-92
2023/09/01 02:09:58;;;;;;;;;5.67;5.67;;;;;;;;4757120;29;45403;-92
2023/09/01 02:12:23;;;;;;;;;6.00;6.00;;;;;;;;4770903;29;45322;-92
2023/09/01 02:14:48;;;;;;;;;6.33;6.33;;;;;;;;4749625;29;45778;-91
2023/09/01 02:17:14;;;;;;;;;5.67;5.67;;;;;;;;4770916;29;45493;-92
2023/09/01 02:19:39;;;;;;;;;5.33;5.33;;;;;;;;4741177;29;46038;-92
2023/09/01 02:22:05;;;;;;;;;4.00;4.00;;;;;;;;4757723;29;45274;-92
2023/09/01 02:24:31;;;;;;;;;6.00;6.00;;;;;;;;4746262;29;45282;-92
2023/09/01 02:26:56;;;;;;;;;2.00;2.00;;;;;;;;4775171;29;45417;-92
2023/09/01 02:29:22;;;;;;;;;4.33;4.33;;;;;;;;4768456;29;45193;-92
2023/09/01 02:31:47;;;;;;;;;3.00;3.00;;;;;;;;4763501;29;45215;-92
2023/09/01 02:34:13;;;;;;;;;3.00;3.00;;;;;;;;4741267;29;45679;-92
2023/09/01 02:36:38;;;;;;;;;3.00;3.00;;;;;;;;4757260;29;45277;-92
2023/09/01 02:39:06;;;;;;;;;4.00;4.00;;;;;;;;4756820;29;45216;-92
2023/09/01 02:41:32;;;;;;;;;2.00;2.00;;;;;;;;4759715;29;45400;-92
2023/09/01 02:43:57;;;;;;;;;4.00;4.00;;;;;;;;4775115;29;45449;-92
2023/09/01 02:46:22;;;;;;;;;3.00;3.00;;;;;;;;4761339;29;45362;-92
2023/09/01 02:48:48;;;;;;;;;4.00;4.00;;;;;;;;4754745;29;45399;-92
2023/09/01 02:51:13;;;;;;;;;4.00;4.00;;;;;;;;4760400;29;45356;-92
2023/09/01 02:53:38;;;;;;;;;2.67;2.67;;;;;;;;4757282;29;45385;-92
2023/09/01 02:56:04;;;;;;;;;2.00;2.00;;;;;;;;4756922;29;46200;-92
2023/09/01 02:58:29;;;;;;;;;3.00;3.00;;;;;;;;4741103;29;45285;-92
2023/09/01 03:00:55;;;;;;;;;3.00;3.00;;;;;;;;4768505;29;45303;-92
2023/09/01 03:03:20;;;;;;;;;2.33;2.33;;;;;;;;4764386;29;45256;-92
2023/09/01 03:05:46;;;;;;;;;3.33;3.33;;;;;;;;4766847;29;45583;-92
2023/09/01 03:08:11;;;;;;;;;3.00;3.00;;;;;;;;4759808;29;45247;-92
2023/09/01 03:10:37;;;;;;;;;3.67;3.67;;;;;;;;4759970;29;45173;-92
2023/09/01 03:13:03;;;;;;;;;1.33;1.33;;;;;;;;4743892;29;45263;-92
2023/09/01 03:15:28;;;;;;;;;2.67;2.67;;;;;;;;4759683;29;46695;-92
2023/09/01 03:17:53;;;;;;;;;3.00;3.00;;;;;;;;4760594;29;45395;-92
2023/09/01 03:20:19;;;;;;;;;2.00;2.00;;;;;;;;4767545;29;46421;-93
2023/09/01 03:22:44;;;;;;;;;3.00;3.00;;;;;;;;4752423;29;45575;-93
2023/09/01 03:25:12;;;;;;;;;2.00;2.00;;;;;;;;4755495;29;46286;-93
2023/09/01 03:27:37;;;;;;;;;1.67;1.67;;;;;;;;4761157;29;45695;-93
2023/09/01 03:30:05;;;;;;;;;3.67;3.00;;;;;;;;4777738;29;45383;-94
2023/09/01 03:32:30;;;;;;;;;1.00;1.00;;;;;;;;4778550;29;45595;-92
2023/09/01 03:34:55;;;;;;;;;2.67;2.67;;;;;;;;4777393;29;45282;-93
2023/09/01 03:37:22;;;;;;;;;1.33;1.33;;;;;;;;4770039;29;45252;-93
2023/09/01 03:39:47;;;;;;;;;0.67;0.67;;;;;;;;4777202;29;45408;-92
2023/09/01 03:42:12;;;;;;;;;1.00;1.00;;;;;;;;4755581;29;45249;-93
2023/09/01 03:44:37;;;;;;;;;1.00;1.00;;;;;;;;4759347;29;45227;-92
2023/09/01 03:47:03;;;;;;;;;1.00;1.00;;;;;;;;4776923;29;45290;-92
2023/09/01 03:49:29;;;;;;;;;0.33;0.33;;;;;;;;4791734;29;45375;-93
2023/09/01 03:51:54;;;;;;;;;0.00;0.00;;;;;;;;4803703;29;11115;-93
2023/09/01 03:54:19;;;;;;;;;1.00;1.00;;;;;;;;4788736;29;8946;-93
2023/09/01 03:56:45;;;;;;;;;0.67;0.67;;;;;;;;4789297;29;23076;-94
2023/09/01 03:59:10;;;;;;;;;0.67;0.67;;;;;;;;4766423;29;45432;-93
2023/09/01 04:01:35;;;;;;;;;1.00;1.00;;;;;;;;4759116;29;45241;-93
2023/09/01 04:04:01;;;;;;;;;0.00;0.00;;;;;;;;4760368;29;45432;-93
2023/09/01 04:06:26;;;;;;;;;0.00;0.00;;;;;;;;4759052;29;45401;-94
2023/09/01 04:08:52;;;;;;;;;1.00;1.00;;;;;;;;4769585;29;45239;-94
2023/09/01 04:11:17;;;;;;;;;1.00;1.00;;;;;;;;4785698;29;28364;-93
2023/09/01 04:13:43;;;;;;;;;3.00;1.00;;;;;;;;4771902;29;29468;-93
2023/09/01 04:16:08;;;;;;;;;1.33;1.33;;;;;;;;4774401;29;28434;-93
2023/09/01 04:18:33;;;;;;;;;1.00;1.00;;;;;;;;4777990;29;28582;-93
2023/09/01 04:20:59;;;;;;;;;0.67;0.67;;;;;;;;4785261;29;28341;-93
2023/09/01 04:23:24;;;;;;;;;2.00;2.00;;;;;;;;4785196;29;43720;-93
2023/09/01 04:25:50;;;;;;;;;1.00;1.00;;;;;;;;4779173;29;45263;-93
2023/09/01 04:28:16;;;;;;;;;1.00;1.00;;;;;;;;4764334;29;45252;-93
2023/09/01 04:30:44;;;;;;;;;2.00;2.00;;;;;;;;4761484;29;45620;-93
2023/09/01 04:33:10;;;;;;;;;1.67;1.67;;;;;;;;4758513;29;46236;-93
2023/09/01 04:35:35;;;;;;;;;1.00;1.00;;;;;;;;4768234;29;44440;-93
2023/09/01 04:38:00;;;;;;;;;1.00;1.00;;;;;;;;4773102;29;36625;-93
2023/09/01 04:40:26;;;;;;;;;1.00;1.00;;;;;;;;4757100;29;28555;-94
2023/09/01 04:42:51;;;;;;;;;1.00;1.00;;;;;;;;4773791;29;29383;-93
2023/09/01 04:45:17;;;;;;;;;1.33;1.33;;;;;;;;4790780;29;28474;-94
2023/09/01 04:47:42;;;;;;;;;1.67;1.67;;;;;;;;4789270;29;42151;-93
2023/09/01 04:50:10;;;;;;;;;1.00;1.00;;;;;;;;4760310;29;45338;-93
2023/09/01 04:52:35;;;;;;;;;3.00;3.00;;;;;;;;4758488;29;45302;-93
2023/09/01 04:55:01;;;;;;;;;3.67;3.67;;;;;;;;4745118;29;45181;-93
2023/09/01 04:57:27;;;;;;;;;3.00;3.00;;;;;;;;4758547;29;45530;-93
2023/09/01 04:59:52;;;;;;;;;1.67;1.67;;;;;;;;4742592;29;45369;-93
2023/09/01 05:02:17;;;;;;;;;1.00;1.00;;;;;;;;4762825;29;45355;-93
2023/09/01 05:04:42;;;;;;;;;3.00;3.00;;;;;;;;4770931;29;45279;-95
2023/09/01 05:07:08;;;;;;;;;3.00;3.00;;;;;;;;4778181;29;45022;-94
2023/09/01 05:09:33;;;;;;;;;5.00;3.00;;;;;;;;4788859;29;28474;-94
2023/09/01 05:11:59;;;;;;;;;4.00;4.00;;;;;;;;4772835;29;28432;-94
2023/09/01 05:14:24;;;;;;;;;2.00;2.00;;;;;;;;4772700;29;28283;-93
2023/09/01 05:16:50;;;;;;;;;3.00;3.00;;;;;;;;4772495;29;28473;-94
2023/09/01 05:19:15;;;;;;;;;2.00;2.00;;;;;;;;4774626;29;28371;-94
2023/09/01 05:21:43;;;;;;;;;2.67;2.67;;;;;;;;4778330;29;28479;-93
2023/09/01 05:24:09;;;;;;;;;4.67;4.33;;;;;;;;4772582;29;28544;-93
2023/09/01 05:26:34;;;;;;;;;4.00;4.00;;;;;;;;4772735;29;28328;-93
2023/09/01 05:29:04;;;;;;;;;6.00;6.00;;;;;;;;4772496;29;28655;-94
2023/09/01 05:31:29;;;;;;;;;7.33;7.33;;;;;;;;4755874;29;29374;-92
2023/09/01 05:33:54;;;;;;;;;6.33;6.00;;;;;;;;4774803;29;28384;-92
2023/09/01 05:36:22;;;;;;;;;3.33;3.33;;;;;;;;4761343;29;28355;-93
2023/09/01 05:38:50;;;;;;;;;6.67;6.67;;;;;;;;4773082;29;28747;-93
2023/09/01 05:41:16;;;;;;;;;7.67;7.67;;;;;;;;4756311;29;29984;-92
2023/09/01 05:43:41;;;;;;;;;11.00;10.00;;;;;;;;4781104;29;45202;-93
2023/09/01 05:46:06;;;;;;;;;7.00;7.00;;;;;;;;4781733;29;43619;-92
2023/09/01 05:48:31;;;;;;;;;6.33;6.33;;;;;;;;4781708;29;28562;-92
2023/09/01 05:50:57;;;;;;;;;4.33;4.33;;;;;;;;4787630;29;28356;-92
2023/09/01 05:53:22;;;;;;;;;4.67;4.00;;;;;;;;4776957;29;28285;-92
2023/09/01 05:55:47;;;;;;;;;6.00;6.00;;;;;;;;4786500;29;41557;-92
2023/09/01 05:58:13;;;;;;;;;7.33;5.67;;;;;;;;4813064;29;8853;-92
2023/09/01 06:00:38;;;;;;;;;8.00;8.00;;;;;;;;4790620;29;8842;-92
2023/09/01 06:03:03;;;;;;;;;7.33;7.33;;;;;;;;4790501;29;8913;-92
2023/09/01 06:05:29;;;;;;;;;3.00;3.00;;;;;;;;4803053;29;8913;-92
2023/09/01 06:07:54;;;;;;;;;4.00;4.00;;;;;;;;4795980;29;9777;-92
2023/09/01 06:10:19;;;;;;;;;4.33;4.33;;;;;;;;4814154;29;8834;-92
2023/09/01 06:12:45;;;;;;;;;4.00;4.00;;;;;;;;4799195;29;9571;-92
2023/09/01 06:15:10;;;;;;;;;4.00;4.00;;;;;;;;4790358;29;8850;-92
2023/09/01 06:17:37;;;;;;;;;6.67;6.67;;;;;;;;4791183;29;8864;-93
2023/09/01 06:20:04;;;;;;;;;5.00;5.00;;;;;;;;4790352;29;8818;-93
2023/09/01 06:22:29;;;;;;;;;3.75;3.75;;;;;;;;4774100;29;8845;-93
2023/09/01 06:24:54;;;;;;;;;4.00;4.00;;;;;;;;4773906;29;8967;-93
2023/09/01 06:27:20;;;;;;;;;2.67;2.67;;;;;;;;4787203;29;8863;-93
2023/09/01 06:29:45;;;;;;;;;4.00;4.00;;;;;;;;4789988;29;35061;-92
2023/09/01 06:32:11;;;;;;;;;2.00;2.00;;;;;;;;4790134;29;8826;-92
2023/09/01 06:34:37;;;;;;;;;3.00;3.00;;;;;;;;4776366;29;8826;-95
2023/09/01 06:37:03;;;;;;;;;2.00;2.00;;;;;;;;4787540;29;41479;-93
2023/09/01 06:39:28;;;;;;;;;3.00;3.00;;;;;;;;4810941;29;8856;-93
2023/09/01 06:41:53;;;;;;;;;1.00;1.00;;;;;;;;4806049;29;8836;-93
2023/09/01 06:44:18;;;;;;;;;3.00;3.00;;;;;;;;4798936;29;40132;-93
2023/09/01 06:46:44;;;;;;;;;5.33;5.33;;;;;;;;4783378;29;39996;-94
2023/09/01 06:49:12;;;;;;;;;8.67;8.67;;;;;;;;4785520;29;28496;-96
2023/09/01 06:51:37;;;;;;;;;6.33;6.33;;;;;;;;4790753;29;28431;-93
2023/09/01 06:54:05;;;;;;;;;3.67;3.67;;;;;;;;4792658;29;28427;-93
2023/09/01 06:56:30;;;;;;;;;4.00;4.00;;;;;;;;4788017;29;28467;-93
2023/09/01 06:58:55;;;;;;;;;5.33;4.00;;;;;;;;4782867;29;29817;-93
2023/09/01 07:01:21;;;;;;;;;4.00;4.00;;;;;;;;4766575;29;28321;-93
2023/09/01 07:03:46;;;;;;;;;17.00;17.00;;;;;;;;4766440;29;28729;-92
2023/09/01 07:06:12;;;;;;;;;6.67;6.67;;;;;;;;4783921;29;28483;-93
2023/09/01 07:08:37;;;;;;;;;3.00;3.00;;;;;;;;4776084;29;44176;-93
2023/09/01 07:11:03;;;;;;;;;2.33;2.33;;;;;;;;4749130;29;44831;-93
2023/09/01 07:13:29;;;;;;;;;5.33;5.33;;;;;;;;4775344;29;45438;-93
2023/09/01 07:15:54;;;;;;;;;3.00;3.00;;;;;;;;4769040;29;28596;-93
2023/09/01 07:18:21;;;;;;;;;6.00;6.00;;;;;;;;4788129;29;28325;-93
2023/09/01 07:20:47;;;;;;;;;3.67;3.67;;;;;;;;4768279;29;28492;-92
2023/09/01 07:23:12;;;;;;;;;3.00;3.00;;;;;;;;4784041;29;28581;-95
2023/09/01 07:25:39;;;;;;;;;2.00;2.00;;;;;;;;4784011;29;28604;-93
2023/09/01 07:28:06;;;;;;;;;3.00;3.00;;;;;;;;4783685;29;28589;-93
2023/09/01 07:30:32;;;;;;;;;2.00;2.00;;;;;;;;4768456;29;27914;-93
2023/09/01 07:32:57;;;;;;;;;5.00;4.00;;;;;;;;4767549;29;28876;-93
2023/09/01 07:35:23;;;;;;;;;1.67;1.67;;;;;;;;4782838;29;28578;-93
2023/09/01 07:37:48;;;;;;;;;4.33;4.33;;;;;;;;4783370;29;28712;-93
2023/09/01 07:40:13;;;;;;;;;9.00;9.00;;;;;;;;4786368;29;28287;-93
2023/09/01 07:42:41;;;;;;;;;4.00;4.00;;;;;;;;4757809;29;28260;-93
2023/09/01 07:45:06;;;;;;;;;4.50;4.50;;;;;;;;4778018;29;24388;-93
2023/09/01 07:47:31;;;;;;;;;2.33;2.33;;;;;;;;4777343;29;8838;-92
2023/09/01 07:49:57;;;;;;;;;6.00;6.00;;;;;;;;4810308;29;8844;-92
2023/09/01 07:52:22;;;;;;;;;21.33;21.33;;;;;;;;4808120;29;9603;-93
2023/09/01 07:54:47;;;;;;;;;35.00;34.33;;;;;;;;4800259;29;8834;-92
2023/09/01 07:57:12;;;;;;;;;9.33;9.33;;;;;;;;4767314;29;46850;-92
2023/09/01 07:59:39;;;;;;;;;2.33;2.33;;;;;;;;4769488;29;45214;-92
2023/09/01 08:02:05;;;;;;;;;4.00;4.00;;;;;;;;4749354;29;45061;-93
2023/09/01 08:04:30;;;;;;;;;2.33;2.33;;;;;;;;4769433;29;45192;-92
2023/09/01 08:06:56;;;;;;;;;3.00;3.00;;;;;;;;4762239;29;46136;-92
2023/09/01 08:09:21;;;;;;;;;6.00;6.00;;;;;;;;4755801;29;44741;-92
2023/09/01 08:11:46;;;;;;;;;46.00;41.00;;;;;;;;4749000;29;45260;-93
2023/09/01 08:14:11;;;;;;;;;22.33;21.00;;;;;;;;4777459;29;45211;-92
2023/09/01 08:16:36;;;;;;;;;14.33;14.33;;;;;;;;4764042;29;46447;-93
2023/09/01 08:19:03;;;;;;;;;8.00;8.00;;;;;;;;4783268;29;45308;-93
2023/09/01 08:21:30;;;;;;;;;8.67;8.67;;;;;;;;4748185;29;45189;-92
2023/09/01 08:23:55;;;;;;;;;3.67;3.67;;;;;;;;4743082;29;45457;-93
2023/09/01 08:26:20;;;;;;;;;;;;;;;;;;3661872;29;22585162;-93
2023/09/01 08:28:46;;;;;;;;;22.33;22.33;;;;;;;;2033928;29;34191473;-93
2023/09/01 08:31:11;;;;;;;;;4.00;4.00;;;;;;;;4204577;29;13250225;-93
2023/09/01 08:33:36;;;;;;;;;2.00;2.00;;;;;;;;4606422;29;1449677;-93
2023/09/01 08:36:05;;;;;;;;;2.00;2.00;;;;;;;;4687193;29;2692260;-93
2023/09/01 08:38:31;;;;;;;;;1.00;1.00;;;;;;;;4417161;29;6562227;-93
2023/09/01 08:40:59;;;;;;;;;3.00;2.33;;;;;;;;4766461;29;45145;-93
2023/09/01 08:43:26;;;;;;;;;4.00;4.00;;;;;;;;4756115;29;45577;-93
2023/09/01 08:45:52;;;;;;;;;2.00;2.00;;;;;;;;4767995;29;46582;-92
2023/09/01 08:48:17;;;;;;;;;2.00;2.00;;;;;;;;4742059;29;45419;-93
2023/09/01 08:50:43;;;;;;;;;3.67;3.67;;;;;;;;4766699;29;45503;-93
2023/09/01 08:53:08;;;;;;;;;2.33;2.33;;;;;;;;4765097;29;45418;-93
2023/09/01 08:55:33;;;;;;;;;1.00;1.00;;;;;;;;4770030;29;45462;-93
2023/09/01 08:57:58;;;;;;;;;4.00;4.00;;;;;;;;4780945;29;45419;-93
2023/09/01 09:00:24;;;;;;;;;4.00;4.00;;;;;;;;4761638;29;46652;-93
2023/09/01 09:02:49;;;;;;;;;3.00;3.00;;;;;;;;4744911;29;45435;-92
2023/09/01 09:05:14;;;;;;;;;3.00;3.00;;;;;;;;4766091;29;46293;-93
2023/09/01 09:07:40;;;;;;;;;4.00;4.00;;;;;;;;4758256;29;45263;-93
2023/09/01 09:10:08;;;;;;;;;3.33;3.33;;;;;;;;4768159;29;45438;-95
2023/09/01 09:12:35;;;;;;;;;3.00;3.00;;;;;;;;4765835;29;45376;-92
2023/09/01 09:15:00;;;;;;;;;2.00;2.00;;;;;;;;4757357;29;47083;-93
2023/09/01 09:20:50;;;;;;;;;3.00;3.00;;;;;;;;5002257;24;45427;-96
2023/09/01 09:23:44;;;;;;;;;2.00;2.00;;;;;;;;4758063;29;45502;-96
2023/09/01 09:26:09;;;;;;;;;2.00;2.00;;;;;;;;4772123;29;45447;-91
2023/09/01 09:28:35;;;;;;;;;4.00;3.00;;;;;;;;4773395;29;45380;-92
2023/09/01 09:31:00;;;;;;;;;2.67;2.67;;;;;;;;4741649;29;45843;-92
2023/09/01 09:33:29;;;;;;;;;2.33;2.33;;;;;;;;4758422;29;45358;-92
2023/09/01 09:35:54;;;;;;;;;1.00;1.00;;;;;;;;4757835;29;45764;-92
2023/09/01 09:38:19;;;;;;;;;3.00;3.00;;;;;;;;4757387;29;45214;-92
2023/09/01 09:41:00;;;;;;;;;3.00;3.00;;;;;;;;4757497;29;45379;-92
2023/09/01 09:43:30;;;;;;;;;2.00;2.00;;;;;;;;4742145;29;45500;-92
2023/09/01 09:45:55;;;;;;;;;3.00;3.00;;;;;;;;4757282;29;46227;-91
2023/09/01 09:48:20;;;;;;;;;2.67;2.67;;;;;;;;4757304;29;45232;-91
2023/09/01 09:50:52;;;;;;;;;0.33;0.33;;;;;;;;4749735;29;45363;-92
2023/09/01 09:53:22;;;;;;;;;2.00;2.00;;;;;;;;4758009;29;45317;-92
2023/09/01 09:55:49;;;;;;;;;3.00;3.00;;;;;;;;4741362;29;47158;-91
2023/09/01 09:58:16;;;;;;;;;3.33;3.33;;;;;;;;4745896;29;45476;-91
2023/09/01 10:00:53;;;;;;;;;4.00;4.00;;;;;;;;4754151;29;45322;-91
2023/09/01 10:03:20;;;;;;;;;5.33;5.33;;;;;;;;4736833;29;45397;-91
2023/09/01 10:05:46;;;;;;;;;5.33;4.00;;;;;;;;4757561;29;45386;-92
2023/09/01 10:08:13;;;;;;;;;4.33;3.00;;;;;;;;4758302;29;45243;-92
2023/09/01 10:10:38;;;;;;;;;6.33;5.67;;;;;;;;4758930;29;45378;-91
2023/09/01 10:13:06;;;;;;;;;3.00;3.00;;;;;;;;4751848;29;45542;-91
2023/09/01 10:15:32;;;;;;;;;2.00;2.00;;;;;;;;4745666;29;45343;-91
2023/09/01 10:17:58;;;;;;;;;3.67;3.67;;;;;;;;4759744;29;45576;-91
2023/09/01 10:20:23;;;;;;;;;3.00;3.00;;;;;;;;4753194;29;45521;-91
2023/09/01 10:22:49;;;;;;;;;2.67;2.67;;;;;;;;4751742;29;45315;-91
2023/09/01 10:25:15;;;;;;;;;2.00;2.00;;;;;;;;4742680;30;45635;-92
2023/09/01 10:28:00;;;;;;;;;5.67;5.67;;;;;;;;4735599;29;45259;-91
2023/09/01 10:30:26;;;;;;;;;4.00;4.00;;;;;;;;4743573;29;45208;-91
2023/09/01 10:33:01;;;;;;;;;2.33;2.33;;;;;;;;4758025;29;45181;-91
2023/09/01 10:35:36;;;;;;;;;4.00;4.00;;;;;;;;4732862;29;47874;-91
2023/09/01 10:38:08;;;;;;;;;7.67;7.67;;;;;;;;4760266;29;45476;-91
2023/09/01 10:40:43;;;;;;;;;4.00;4.00;;;;;;;;4759601;29;45354;-91
2023/09/01 10:43:11;;;;;;;;;3.67;3.67;;;;;;;;4758811;29;45501;-91
2023/09/01 10:45:37;;;;;;;;;5.00;5.00;;;;;;;;4740310;30;46239;-91
2023/09/01 10:48:04;;;;;;;;;3.00;3.00;;;;;;;;4742034;29;45295;-91
2023/09/01 10:50:32;;;;;;;;;4.33;4.33;;;;;;;;4755323;29;45710;-91
2023/09/01 10:53:16;;;;;;;;;3.00;3.00;;;;;;;;4744687;29;45619;-91
2023/09/01 10:56:00;;;;;;;;;2.33;2.33;;;;;;;;4726009;30;47262;-91
2023/09/01 10:58:36;;;;;;;;;3.67;3.67;;;;;;;;4748776;29;45321;-90
2023/09/01 11:01:21;;;;;;;;;4.33;4.33;;;;;;;;4749555;29;45406;-91
2023/09/01 11:03:47;;;;;;;;;3.67;3.67;;;;;;;;4733417;29;45442;-91
2023/09/01 11:06:12;;;;;;;;;2.33;2.33;;;;;;;;4747761;29;45570;-91
2023/09/01 11:08:37;;;;;;;;;3.33;3.33;;;;;;;;4730435;29;45818;-91
2023/09/01 11:11:07;;;;;;;;;3.00;3.00;;;;;;;;4749897;29;45408;-90
2023/09/01 11:13:32;;;;;;;;;2.67;2.67;;;;;;;;4739810;29;45670;-91
2023/09/01 11:16:06;;;;;;;;;2.00;2.00;;;;;;;;4740885;29;46679;-90
2023/09/01 11:18:32;;;;;;;;;3.00;3.00;;;;;;;;4735246;29;45341;-90
2023/09/01 11:21:00;;;;;;;;;2.00;2.00;;;;;;;;4731477;29;45571;-90
2023/09/01 11:23:27;;;;;;;;;2.00;2.00;;;;;;;;4750014;29;45552;-90
2023/09/01 11:25:59;;;;;;;;;2.00;2.00;;;;;;;;4740282;29;47579;-90
2023/09/01 11:28:25;;;;;;;;;2.33;2.33;;;;;;;;4748419;29;45473;-90
2023/09/01 11:31:03;;;;;;;;;3.00;3.00;;;;;;;;4733752;29;45547;-90
2023/09/01 11:33:33;;;;;;;;;3.00;3.00;;;;;;;;4749161;29;45522;-90
2023/09/01 11:36:05;;;;;;;;;2.00;2.00;;;;;;;;4750409;29;45390;-90
2023/09/01 11:38:30;;;;;;;;;2.00;2.00;;;;;;;;4748283;29;45429;-90
2023/09/01 11:40:56;;;;;;;;;3.67;3.00;;;;;;;;4748966;29;45451;-89
2023/09/01 11:43:22;;;;;;;;;3.33;3.33;;;;;;;;4737869;29;45266;-88
2023/09/01 11:45:48;;;;;;;;;3.00;3.00;;;;;;;;4743140;29;46439;-89
2023/09/01 11:48:14;;;;;;;;;2.00;2.00;;;;;;;;4740835;30;45441;-89
2023/09/01 11:50:45;;;;;;;;;2.67;2.67;;;;;;;;4749210;29;45475;-89
2023/09/01 11:53:20;;;;;;;;;2.00;2.00;;;;;;;;4734799;29;45344;-90
2023/09/01 11:55:47;;;;;;;;;2.00;2.00;;;;;;;;4745508;29;46380;-93
2023/09/01 11:58:12;;;;;;;;;2.00;2.00;;;;;;;;4747978;29;45303;-89
2023/09/01 12:00:38;;;;;;;;;2.33;2.33;;;;;;;;4745519;29;45267;-89
2023/09/01 12:03:04;;;;;;;;;2.00;2.00;;;;;;;;4748476;29;45456;-89
2023/09/01 12:05:29;;;;;;;;;2.00;2.00;;;;;;;;4738330;29;45548;-89
2023/09/01 12:07:55;;;;;;;;;2.00;2.00;;;;;;;;4743364;29;45529;-89
2023/09/01 12:10:24;;;;;;;;;3.00;3.00;;;;;;;;4748483;29;45461;-89
2023/09/01 12:12:49;;;;;;;;;1.67;1.67;;;;;;;;4750988;29;45729;-90
2023/09/01 12:15:14;;;;;;;;;1.00;1.00;;;;;;;;4731750;29;46288;-89
2023/09/01 12:17:39;;;;;;;;;1.00;1.00;;;;;;;;4740228;29;45733;-91
2023/09/01 12:20:06;;;;;;;;;1.33;1.33;;;;;;;;4748320;29;45563;-89
2023/09/01 12:22:31;;;;;;;;;3.00;3.00;;;;;;;;4745656;29;45416;-90
2023/09/01 12:24:57;;;;;;;;;2.00;2.00;;;;;;;;4742926;29;45425;-90
2023/09/01 12:27:22;;;;;;;;;2.00;2.00;;;;;;;;4751902;29;45518;-90
2023/09/01 12:29:48;;;;;;;;;1.33;1.33;;;;;;;;4746260;29;45513;-91
2023/09/01 12:32:16;;;;;;;;;1.67;1.67;;;;;;;;4749584;29;45205;-93
2023/09/01 12:34:42;;;;;;;;;2.00;2.00;;;;;;;;4744408;29;46469;-92
2023/09/01 12:37:07;;;;;;;;;1.33;1.33;;;;;;;;4748869;29;45679;-92
2023/09/01 12:39:32;;;;;;;;;2.00;2.00;;;;;;;;4746488;29;45295;-95
2023/09/01 12:41:58;;;;;;;;;1.33;1.33;;;;;;;;4740473;29;45950;-91
2023/09/01 12:44:23;;;;;;;;;1.00;1.00;;;;;;;;4750602;29;45395;-92
2023/09/01 12:46:49;;;;;;;;;2.00;2.00;;;;;;;;4742505;29;45429;-92
2023/09/01 12:49:15;;;;;;;;;2.00;2.00;;;;;;;;4747730;29;45436;-92
2023/09/01 12:51:41;;;;;;;;;1.33;1.33;;;;;;;;4750771;29;45499;-94
2023/09/01 12:54:07;;;;;;;;;0.00;0.00;;;;;;;;4739155;29;46293;-94
2023/09/01 12:56:33;;;;;;;;;1.33;1.33;;;;;;;;4753284;29;45396;-94
2023/09/01 12:58:58;;;;;;;;;2.00;2.00;;;;;;;;4743587;29;45384;-94
2023/09/01 13:01:23;;;;;;;;;1.00;1.00;;;;;;;;4756701;29;45198;-93
2023/09/01 13:03:48;;;;;;;;;0.67;0.67;;;;;;;;4742730;29;45232;-94
2023/09/01 13:06:14;;;;;;;;;1.00;1.00;;;;;;;;4737917;30;45275;-93
2023/09/01 13:08:39;;;;;;;;;1.67;1.67;;;;;;;;4751508;29;45546;-93
2023/09/01 13:11:07;;;;;;;;;2.00;2.00;;;;;;;;4723620;30;45489;-92
2023/09/01 13:13:32;;;;;;;;;2.00;2.00;;;;;;;;4748552;29;45745;-93
2023/09/01 13:15:57;;;;;;;;;1.00;1.00;;;;;;;;4755153;29;45490;-92
2023/09/01 13:18:23;;;;;;;;;2.00;2.00;;;;;;;;4747466;29;45388;-93
2023/09/01 13:20:48;;;;;;;;;1.00;1.00;;;;;;;;4738653;29;45448;-94
2023/09/01 13:23:13;;;;;;;;;1.00;1.00;;;;;;;;4731108;30;46968;-93
2023/09/01 13:25:38;;;;;;;;;1.00;1.00;;;;;;;;4745038;29;45732;-94
2023/09/01 13:28:19;;;;;;;;;1.00;1.00;;;;;;;;4753162;29;45481;-95
2023/09/01 13:30:44;;;;;;;;;1.00;1.00;;;;;;;;4746166;29;45213;-93
2023/09/01 13:33:10;;;;;;;;;0.00;0.00;;;;;;;;4731905;29;47939;-92
2023/09/01 13:35:35;;;;;;;;;1.33;1.33;;;;;;;;4739233;29;47301;-92
2023/09/01 13:38:00;;;;;;;;;1.00;1.00;;;;;;;;4733858;29;45598;-92
2023/09/01 13:40:26;;;;;;;;;2.00;2.00;;;;;;;;4742777;29;45587;-92
2023/09/01 13:42:52;;;;;;;;;1.67;1.67;;;;;;;;4738381;30;45524;-92
2023/09/01 13:45:17;;;;;;;;;1.67;1.67;;;;;;;;4735409;29;45342;-92
2023/09/01 13:47:43;;;;;;;;;1.33;1.33;;;;;;;;4729233;29;45480;-94
2023/09/01 13:50:08;;;;;;;;;1.00;1.00;;;;;;;;4750876;29;45469;-94
2023/09/01 13:52:33;;;;;;;;;1.00;1.00;;;;;;;;4754546;29;46176;-94
2023/09/01 13:54:59;;;;;;;;;0.00;0.00;;;;;;;;4742298;29;45402;-93
2023/09/01 13:57:24;;;;;;;;;1.00;1.00;;;;;;;;4746014;29;45767;-93
2023/09/01 13:59:49;;;;;;;;;1.00;1.00;;;;;;;;4743145;29;45409;-94
2023/09/01 14:02:15;;;;;;;;;2.00;2.00;;;;;;;;4739266;29;45514;-94
2023/09/01 14:04:40;;;;;;;;;1.00;1.00;;;;;;;;4743333;29;45236;-93
2023/09/01 14:07:05;;;;;;;;;1.00;1.00;;;;;;;;4752166;29;45445;-93
2023/09/01 14:09:31;;;;;;;;;1.00;1.00;;;;;;;;4750852;29;45297;-93
2023/09/01 14:11:56;;;;;;;;;0.33;0.33;;;;;;;;4750961;29;46497;-94
2023/09/01 14:14:21;;;;;;;;;1.00;1.00;;;;;;;;4743891;29;45220;-93
2023/09/01 14:16:47;;;;;;;;;2.00;2.00;;;;;;;;4731065;29;45326;-93
2023/09/01 14:19:12;;;;;;;;;1.00;1.00;;;;;;;;4751825;29;45471;-93
2023/09/01 14:21:37;;;;;;;;;1.00;1.00;;;;;;;;4749625;29;45575;-93
2023/09/01 14:24:03;;;;;;;;;1.00;1.00;;;;;;;;4735440;29;45364;-92
2023/09/01 14:26:28;;;;;;;;;1.67;1.67;;;;;;;;4740119;30;45320;-92
2023/09/01 14:28:53;;;;;;;;;0.67;0.67;;;;;;;;4733803;29;45627;-92
2023/09/01 14:31:18;;;;;;;;;1.00;1.00;;;;;;;;4740059;30;45260;-92
2023/09/01 14:33:44;;;;;;;;;0.00;0.00;;;;;;;;4739561;30;45223;-92
2023/09/01 14:36:10;;;;;;;;;1.00;1.00;;;;;;;;4742642;29;46038;-92
2023/09/01 14:38:35;;;;;;;;;1.00;1.00;;;;;;;;4739701;29;45568;-92
2023/09/01 14:41:01;;;;;;;;;0.00;0.00;;;;;;;;4744045;29;45437;-93